createdAt,value
2022-11-05T00:02:33.669Z,99354.81
2022-11-05T00:05:22.892Z,99353.82
2022-11-05T00:08:12.484Z,99357.13
2022-11-05T00:10:55.460Z,99360.58
2022-11-05T00:13:44.030Z,99354.91
2022-11-05T00:16:31.321Z,99355.42
2022-11-05T00:19:15.474Z,99349.20
2022-11-05T00:22:02.912Z,99346.37
2022-11-05T00:25:04.312Z,99340.05
2022-11-05T00:27:35.014Z,99340.74
2022-11-05T00:30:25.457Z,99337.31
2022-11-05T00:33:02.422Z,99337.93
2022-11-05T00:35:44.944Z,99332.41
2022-11-05T00:38:27.723Z,99329.88
2022-11-05T00:40:56.845Z,99329.09
2022-11-05T00:43:58.049Z,99320.81
2022-11-05T00:46:27.254Z,99316.92
2022-11-05T00:49:15.090Z,99314.38
2022-11-05T00:51:43.927Z,99313.55
2022-11-05T00:54:12.884Z,99309.88
2022-11-05T00:56:57.450Z,99307.25
2022-11-05T00:59:30.110Z,99305.89
2022-11-05T01:02:13.694Z,99305.36
2022-11-05T01:04:55.988Z,99307.83
2022-11-05T01:07:38.679Z,99308.06
2022-11-05T01:10:08.471Z,99308.74
2022-11-05T01:12:51.401Z,99306.08
2022-11-05T01:15:20.980Z,99309.47
2022-11-05T01:18:04.234Z,99310.34
2022-11-05T01:20:33.255Z,99310.02
2022-11-05T01:23:02.633Z,99312.27
2022-11-05T01:25:45.103Z,99314.25
2022-11-05T01:28:14.100Z,99308.21
2022-11-05T01:30:57.685Z,99308.90
2022-11-05T01:33:26.872Z,99308.30
2022-11-05T01:36:09.985Z,99301.16
2022-11-05T01:38:38.779Z,99298.30
2022-11-05T01:41:08.072Z,99294.52
2022-11-05T01:43:53.388Z,99295.08
2022-11-05T01:46:46.699Z,99295.33
2022-11-05T01:49:35.063Z,99299.83
2022-11-05T01:52:06.238Z,99301.98
2022-11-05T01:54:48.661Z,99295.11
2022-11-05T01:57:32.950Z,99295.59
2022-11-05T02:00:17.312Z,99293.61
2022-11-05T02:02:46.405Z,99291.59
2022-11-05T02:05:16.545Z,99292.84
2022-11-05T02:08:00.310Z,99295.09
2022-11-05T02:10:30.194Z,99289.98
2022-11-05T02:12:59.652Z,99295.31
2022-11-05T02:16:18.270Z,99293.83
2022-11-05T02:18:53.156Z,99297.27
2022-11-05T02:22:11.809Z,99303.34
2022-11-05T02:25:18.823Z,99295.97
2022-11-05T02:28:20.221Z,99311.63
2022-11-05T02:31:11.213Z,99295.92
2022-11-05T02:34:15.633Z,99284.57
2022-11-05T02:36:55.633Z,99299.12
2022-11-05T02:39:50.101Z,99306.23
2022-11-05T02:42:41.988Z,99305.42
2022-11-05T02:45:23.692Z,99299.35
2022-11-05T02:48:37.784Z,99299.45
2022-11-05T02:51:51.968Z,99303.04
2022-11-05T02:54:32.644Z,99306.39
2022-11-05T02:57:14.952Z,99305.98
2022-11-05T03:00:02.509Z,99305.52
2022-11-05T03:02:45.053Z,99304.11
2022-11-05T03:05:43.580Z,99307.83
2022-11-05T03:08:37.174Z,99300.26
2022-11-05T03:11:15.199Z,99293.11
2022-11-05T03:14:19.464Z,99288.26
2022-11-05T03:17:10.811Z,99290.84
2022-11-05T03:20:12.974Z,99293.38
2022-11-05T03:22:53.678Z,99297.59
2022-11-05T03:25:27.392Z,99302.58
2022-11-05T03:28:05.685Z,99305.20
2022-11-05T03:30:38.571Z,99316.26
2022-11-05T03:33:17.664Z,99312.58
2022-11-05T03:36:06.233Z,99313.64
2022-11-05T03:38:39.107Z,99309.88
2022-11-05T03:41:12.616Z,99311.90
2022-11-05T03:43:58.853Z,99317.59
2022-11-05T03:46:45.931Z,99320.20
2022-11-05T03:49:46.334Z,99319.98
2022-11-05T03:52:20.493Z,99316.46
2022-11-05T03:55:03.903Z,99316.02
2022-11-05T03:57:41.158Z,99319.79
2022-11-05T04:00:11.623Z,99319.65
2022-11-05T04:02:54.282Z,99310.58
2022-11-05T04:05:23.641Z,99314.88
2022-11-05T04:08:25.586Z,99321.66
2022-11-05T04:11:30.452Z,99322.56
2022-11-05T04:13:59.772Z,99332.92
2022-11-05T04:17:01.412Z,99335.80
2022-11-05T04:20:03.739Z,99338.56
2022-11-05T04:22:54.261Z,99341.02
2022-11-05T04:25:23.888Z,99348.03
2022-11-05T04:27:52.706Z,99363.05
2022-11-05T04:30:35.538Z,99356.84
2022-11-05T04:33:17.999Z,99355.21
2022-11-05T04:35:49.216Z,99358.56
2022-11-05T04:38:20.255Z,99353.09
2022-11-05T04:40:49.819Z,99360.36
2022-11-05T04:43:32.624Z,99362.84
2022-11-05T04:46:02.043Z,99370.68
2022-11-05T04:48:44.816Z,99374.83
2022-11-05T04:51:14.453Z,99382.26
2022-11-05T04:53:56.777Z,99389.98
2022-11-05T04:56:39.098Z,99386.48
2022-11-05T04:59:21.856Z,99397.30
2022-11-05T05:02:04.313Z,99397.07
2022-11-05T05:04:33.765Z,99400.41
2022-11-05T05:07:02.742Z,99399.14
2022-11-05T05:09:31.670Z,99410.00
2022-11-05T05:12:14.370Z,99417.65
2022-11-05T05:14:43.183Z,99412.07
2022-11-05T05:17:25.668Z,99411.52
2022-11-05T05:20:13.463Z,99411.20
2022-11-05T05:22:56.414Z,99402.08
2022-11-05T05:25:25.721Z,99395.80
2022-11-05T05:28:08.679Z,99396.68
2022-11-05T05:30:37.759Z,99402.00
2022-11-05T05:33:20.328Z,99392.04
2022-11-05T05:35:49.384Z,99393.78
2022-11-05T05:38:18.452Z,99405.07
2022-11-05T05:40:47.756Z,99413.30
2022-11-05T05:43:32.444Z,99416.17
2022-11-05T05:46:17.607Z,99417.37
2022-11-05T05:49:00.156Z,99414.94
2022-11-05T05:51:42.938Z,99418.88
2022-11-05T05:54:12.261Z,99415.52
2022-11-05T05:56:44.132Z,99414.46
2022-11-05T05:59:12.880Z,99421.73
2022-11-05T06:01:42.379Z,99423.98
2022-11-05T06:04:11.707Z,99433.09
2022-11-05T06:06:40.998Z,99439.52
2022-11-05T06:09:23.543Z,99435.83
2022-11-05T06:12:06.724Z,99440.86
2022-11-05T06:14:49.571Z,99442.05
2022-11-05T06:17:33.482Z,99451.91
2022-11-05T06:20:03.063Z,99457.17
2022-11-05T06:22:54.909Z,99460.45
2022-11-05T06:25:24.857Z,99463.55
2022-11-05T06:27:54.210Z,99465.92
2022-11-05T06:30:23.963Z,99471.95
2022-11-05T06:32:52.992Z,99478.17
2022-11-05T06:35:22.118Z,99476.13
2022-11-05T06:37:51.141Z,99480.95
2022-11-05T06:40:20.101Z,99480.19
2022-11-05T06:42:53.102Z,99479.77
2022-11-05T06:45:35.478Z,99482.85
2022-11-05T06:48:04.591Z,99485.50
2022-11-05T06:50:33.873Z,99493.85
2022-11-05T06:53:16.351Z,99492.54
2022-11-05T06:56:02.732Z,99494.21
2022-11-05T06:58:32.549Z,99497.84
2022-11-05T07:01:08.452Z,99500.73
2022-11-05T07:03:51.413Z,99502.52
2022-11-05T07:06:36.951Z,99504.46
2022-11-05T07:09:06.607Z,99511.38
2022-11-05T07:11:35.386Z,99509.84
2022-11-05T07:14:04.511Z,99509.38
2022-11-05T07:16:47.428Z,99514.36
2022-11-05T07:19:16.717Z,99519.95
2022-11-05T07:21:59.416Z,99521.25
2022-11-05T07:24:28.619Z,99518.98
2022-11-05T07:27:11.215Z,99527.36
2022-11-05T07:29:40.171Z,99541.92
2022-11-05T07:32:09.329Z,99539.55
2022-11-05T07:34:52.553Z,99544.99
2022-11-05T07:37:44.304Z,99553.05
2022-11-05T07:40:15.314Z,99562.77
2022-11-05T07:42:59.893Z,99562.63
2022-11-05T07:45:42.706Z,99569.63
2022-11-05T07:48:11.953Z,99569.20
2022-11-05T07:50:40.854Z,99569.83
2022-11-05T07:53:16.415Z,99576.98
2022-11-05T07:55:48.104Z,99574.82
2022-11-05T07:58:16.795Z,99573.30
2022-11-05T08:00:45.791Z,99585.39
2022-11-05T08:03:17.879Z,99582.36
2022-11-05T08:05:48.220Z,99580.48
2022-11-05T08:08:18.785Z,99578.73
2022-11-05T08:10:48.039Z,99584.30
2022-11-05T08:13:18.327Z,99587.08
2022-11-05T08:16:02.126Z,99597.12
2022-11-05T08:18:32.772Z,99597.77
2022-11-05T08:21:04.319Z,99606.23
2022-11-05T08:23:46.602Z,99609.67
2022-11-05T08:26:29.497Z,99616.35
2022-11-05T08:29:00.850Z,99621.64
2022-11-05T08:31:31.738Z,99622.03
2022-11-05T08:34:02.740Z,99617.01
2022-11-05T08:36:31.724Z,99619.06
2022-11-05T08:39:00.856Z,99622.18
2022-11-05T08:41:29.975Z,99624.65
2022-11-05T08:43:59.155Z,99631.52
2022-11-05T08:46:42.033Z,99632.83
2022-11-05T08:49:24.303Z,99635.15
2022-11-05T08:51:53.119Z,99635.71
2022-11-05T08:54:35.509Z,99640.14
2022-11-05T08:57:17.863Z,99643.17
2022-11-05T08:59:47.004Z,99645.05
2022-11-05T09:02:16.007Z,99646.79
2022-11-05T09:04:45.391Z,99648.38
2022-11-05T09:07:27.721Z,99660.86
2022-11-05T09:09:56.403Z,99665.30
2022-11-05T09:12:25.610Z,99671.98
2022-11-05T09:14:54.678Z,99675.29
2022-11-05T09:17:23.650Z,99679.48
2022-11-05T09:19:52.559Z,99681.79
2022-11-05T09:22:21.663Z,99686.95
2022-11-05T09:24:50.547Z,99690.65
2022-11-05T09:27:32.896Z,99689.58
2022-11-05T09:30:01.546Z,99694.90
2022-11-05T09:32:44.022Z,99699.57
2022-11-05T09:35:13.029Z,99706.21
2022-11-05T09:37:42.281Z,99701.11
2022-11-05T09:40:18.009Z,99703.59
2022-11-05T09:42:47.635Z,99705.31
2022-11-05T09:45:22.500Z,99707.52
2022-11-05T09:48:11.702Z,99713.98
2022-11-05T09:50:44.422Z,99716.96
2022-11-05T09:53:24.990Z,99714.53
2022-11-05T09:55:57.441Z,99720.96
2022-11-05T09:58:39.721Z,99720.47
2022-11-05T10:01:26.565Z,99732.19
2022-11-05T10:03:59.951Z,99743.16
2022-11-05T10:06:30.247Z,99748.40
2022-11-05T10:09:17.468Z,99752.52
2022-11-05T10:11:55.822Z,99754.63
2022-11-05T10:14:46.879Z,99757.77
2022-11-05T10:17:24.809Z,99763.39
2022-11-05T10:20:15.862Z,99764.48
2022-11-05T10:22:49.282Z,99764.50
2022-11-05T10:25:21.289Z,99769.44
2022-11-05T10:27:53.789Z,99774.96
2022-11-05T10:30:22.959Z,99771.29
2022-11-05T10:33:07.530Z,99777.45
2022-11-05T10:35:49.507Z,99777.09
2022-11-05T10:38:18.453Z,99786.21
2022-11-05T10:41:04.326Z,99791.62
2022-11-05T10:43:41.851Z,99797.61
2022-11-05T10:46:35.647Z,99797.25
2022-11-05T10:49:25.828Z,99793.42
2022-11-05T10:51:57.676Z,99797.56
2022-11-05T10:54:32.749Z,99795.81
2022-11-05T10:57:01.637Z,99799.52
2022-11-05T10:59:43.940Z,99806.38
2022-11-05T11:02:26.503Z,99815.22
2022-11-05T11:05:21.730Z,99818.27
2022-11-05T11:08:00.678Z,99821.96
2022-11-05T11:10:32.915Z,99821.85
2022-11-05T11:13:02.661Z,99822.92
2022-11-05T11:15:49.539Z,99821.81
2022-11-05T11:18:25.662Z,99824.11
2022-11-05T11:20:54.370Z,99831.06
2022-11-05T11:23:39.026Z,99829.59
2022-11-05T11:26:22.265Z,99828.08
2022-11-05T11:29:00.960Z,99831.00
2022-11-05T11:31:32.160Z,99837.15
2022-11-05T11:34:04.833Z,99842.70
2022-11-05T11:36:39.054Z,99845.80
2022-11-05T11:42:20.771Z,99848.33
2022-11-05T11:44:51.076Z,99847.47
2022-11-05T11:47:22.520Z,99847.44
2022-11-05T11:50:04.995Z,99843.39
2022-11-05T11:52:36.579Z,99839.06
2022-11-05T11:55:11.416Z,99841.63
2022-11-05T11:58:05.114Z,99849.88
2022-11-05T12:00:55.672Z,99850.02
2022-11-05T12:03:49.490Z,99850.19
2022-11-05T12:06:55.764Z,99854.70
2022-11-05T12:10:04.826Z,99857.83
2022-11-05T12:13:25.008Z,99856.15
2022-11-05T12:16:10.622Z,99856.19
2022-11-05T12:18:42.191Z,99850.96
2022-11-05T12:21:59.211Z,99854.98
2022-11-05T12:24:55.640Z,99853.30
2022-11-05T12:27:38.105Z,99855.15
2022-11-05T12:33:36.017Z,99862.20
2022-11-05T12:36:42.338Z,99863.94
2022-11-05T12:39:37.739Z,99869.91
2022-11-05T12:42:32.693Z,99881.02
2022-11-05T12:45:23.818Z,99891.38
2022-11-05T12:48:16.192Z,99891.83
2022-11-05T12:51:16.747Z,99897.09
2022-11-05T12:54:20.941Z,99894.89
2022-11-05T12:56:54.844Z,99901.21
2022-11-05T12:59:51.676Z,99906.90
2022-11-05T13:02:49.716Z,99903.45
2022-11-05T13:05:35.717Z,99907.24
2022-11-05T13:08:10.927Z,99922.05
2022-11-05T13:11:12.140Z,99927.66
2022-11-05T13:13:51.885Z,99932.18
2022-11-05T13:17:03.643Z,99933.47
2022-11-05T13:19:47.459Z,99934.44
2022-11-05T13:22:28.440Z,99937.02
2022-11-05T13:25:03.082Z,99938.64
2022-11-05T13:28:08.060Z,99951.80
2022-11-05T13:30:42.697Z,99954.65
2022-11-05T13:33:21.453Z,99953.92
2022-11-05T13:36:28.641Z,99956.61
2022-11-05T13:39:33.194Z,99960.41
2022-11-05T13:42:30.490Z,99961.23
2022-11-05T13:45:08.066Z,99963.98
2022-11-05T13:47:59.744Z,99968.45
2022-11-05T13:51:00.405Z,99973.27
2022-11-05T13:53:36.031Z,99978.45
2022-11-05T13:56:35.481Z,99983.73
2022-11-05T13:59:57.453Z,99983.80
2022-11-05T14:02:53.062Z,99988.25
2022-11-05T14:05:39.477Z,99990.93
2022-11-05T14:08:30.337Z,99991.65
2022-11-05T14:11:32.299Z,100001.27
2022-11-05T14:14:08.967Z,100013.55
2022-11-05T14:16:49.354Z,100023.48
2022-11-05T14:19:50.111Z,100027.31
2022-11-05T14:22:38.059Z,100035.77
2022-11-05T14:25:20.143Z,100037.61
2022-11-05T14:27:53.612Z,100040.66
2022-11-05T14:30:48.092Z,100045.20
2022-11-05T14:33:19.211Z,100043.13
2022-11-05T14:35:48.606Z,100045.30
2022-11-05T14:38:31.307Z,100042.64
2022-11-05T14:41:05.438Z,100042.28
2022-11-05T14:43:36.524Z,100042.37
2022-11-05T14:46:07.700Z,100044.73
2022-11-05T14:48:49.029Z,100044.15
2022-11-05T14:51:24.016Z,100046.48
2022-11-05T14:54:22.152Z,100045.46
2022-11-05T14:57:05.442Z,100049.51
2022-11-05T15:00:01.933Z,100049.69
2022-11-05T15:02:40.023Z,100048.30
2022-11-05T15:05:51.958Z,100052.03
2022-11-05T15:08:30.643Z,100052.84
2022-11-05T15:11:18.920Z,100056.51
2022-11-05T15:13:58.318Z,100059.36
2022-11-05T15:16:52.596Z,100064.97
2022-11-05T15:19:23.746Z,100066.59
2022-11-05T15:21:59.466Z,100066.48
2022-11-05T15:24:31.060Z,100068.30
2022-11-05T15:27:06.571Z,100072.69
2022-11-05T15:29:35.817Z,100075.16
2022-11-05T15:32:07.307Z,100076.13
2022-11-05T15:34:37.176Z,100077.20
2022-11-05T15:37:11.897Z,100076.40
2022-11-05T15:39:44.229Z,100074.70
2022-11-05T15:42:24.687Z,100081.80
2022-11-05T15:44:57.405Z,100091.74
2022-11-05T15:47:34.482Z,100097.82
2022-11-05T15:50:18.503Z,100105.27
2022-11-05T15:52:54.462Z,100109.77
2022-11-05T15:55:48.182Z,100115.09
2022-11-05T15:58:17.372Z,100117.87
2022-11-05T16:00:49.404Z,100123.30
2022-11-05T16:03:39.803Z,100129.30
2022-11-05T16:06:10.823Z,100128.31
2022-11-05T16:08:39.668Z,100129.73
2022-11-05T16:11:08.553Z,100132.83
2022-11-05T16:13:40.232Z,100131.45
2022-11-05T16:16:15.321Z,100131.30
2022-11-05T16:18:45.616Z,100135.88
2022-11-05T16:21:23.173Z,100138.30
2022-11-05T16:23:52.405Z,100138.01
2022-11-05T16:29:34.896Z,100148.46
2022-11-05T16:32:13.137Z,100147.66
2022-11-05T16:34:48.431Z,100153.52
2022-11-05T16:37:22.812Z,100156.91
2022-11-05T16:39:52.449Z,100164.73
2022-11-05T16:42:38.243Z,100170.05
2022-11-05T16:45:08.306Z,100176.13
2022-11-05T16:47:51.604Z,100173.02
2022-11-05T16:50:27.445Z,100176.67
2022-11-05T16:52:56.030Z,100177.05
2022-11-05T16:55:24.772Z,100182.34
2022-11-05T16:58:15.657Z,100189.02
2022-11-05T17:00:44.439Z,100184.73
2022-11-05T17:03:13.312Z,100186.90
2022-11-05T17:05:42.487Z,100192.01
2022-11-05T17:08:18.843Z,100187.73
2022-11-05T17:10:54.493Z,100197.20
2022-11-05T17:13:30.641Z,100201.09
2022-11-05T17:16:04.888Z,100199.53
2022-11-05T17:18:33.664Z,100202.36
2022-11-05T17:21:02.330Z,100205.58
2022-11-05T17:23:34.523Z,100208.17
2022-11-05T17:26:07.669Z,100212.68
2022-11-05T17:28:38.048Z,100217.48
2022-11-05T17:31:09.424Z,100219.27
2022-11-05T17:33:38.332Z,100222.17
2022-11-05T17:36:09.137Z,100230.20
2022-11-05T17:38:38.059Z,100235.52
2022-11-05T17:41:18.395Z,100236.64
2022-11-05T17:43:47.712Z,100237.73
2022-11-05T17:46:17.465Z,100237.24
2022-11-05T17:48:46.703Z,100239.70
2022-11-05T17:51:18.671Z,100240.01
2022-11-05T17:53:49.529Z,100241.33
2022-11-05T17:56:32.223Z,100242.08
2022-11-05T17:59:03.812Z,100246.59
2022-11-05T18:01:36.150Z,100251.98
2022-11-05T18:04:08.982Z,100250.59
2022-11-05T18:06:39.785Z,100255.05
2022-11-05T18:09:10.429Z,100254.42
2022-11-05T18:11:40.004Z,100257.70
2022-11-05T18:14:09.096Z,100265.06
2022-11-05T18:16:38.166Z,100265.77
2022-11-05T18:19:06.754Z,100268.02
2022-11-05T18:21:35.632Z,100271.48
2022-11-05T18:24:08.063Z,100271.65
2022-11-05T18:26:36.950Z,100269.49
2022-11-05T18:29:06.816Z,100270.20
2022-11-05T18:31:35.768Z,100273.80
2022-11-05T18:34:06.197Z,100273.95
2022-11-05T18:36:34.788Z,100279.02
2022-11-05T18:39:05.290Z,100279.37
2022-11-05T18:41:33.942Z,100281.95
2022-11-05T18:44:05.967Z,100284.91
2022-11-05T18:49:23.571Z,100283.64
2022-11-05T18:52:06.445Z,100286.11
2022-11-05T18:54:35.428Z,100287.75
2022-11-05T18:57:04.441Z,100287.60
2022-11-05T18:59:39.226Z,100289.24
2022-11-05T19:02:09.448Z,100294.89
2022-11-05T19:04:38.759Z,100294.88
2022-11-05T19:07:08.976Z,100294.39
2022-11-05T19:09:39.280Z,100297.55
2022-11-05T19:12:08.575Z,100295.08
2022-11-05T19:14:37.180Z,100299.59
2022-11-05T19:17:06.042Z,100296.77
2022-11-05T19:19:34.581Z,100299.02
2022-11-05T19:22:03.421Z,100303.11
2022-11-05T19:24:32.326Z,100304.39
2022-11-05T19:27:01.000Z,100304.54
2022-11-05T19:29:29.740Z,100311.54
2022-11-05T19:31:58.264Z,100304.17
2022-11-05T19:34:26.968Z,100306.58
2022-11-05T19:36:55.544Z,100308.19
2022-11-05T19:39:24.158Z,100315.91
2022-11-05T19:41:52.841Z,100319.94
2022-11-05T19:44:21.746Z,100318.76
2022-11-05T19:46:50.481Z,100323.10
2022-11-05T19:49:19.545Z,100324.73
2022-11-05T19:51:48.216Z,100329.87
2022-11-05T19:54:17.382Z,100327.05
2022-11-05T19:56:46.096Z,100329.08
2022-11-05T19:59:14.821Z,100326.83
2022-11-05T20:01:43.776Z,100328.78
2022-11-05T20:04:14.308Z,100329.80
2022-11-05T20:06:56.822Z,100337.13
2022-11-05T20:09:26.718Z,100334.72
2022-11-05T20:11:57.334Z,100336.14
2022-11-05T20:14:26.935Z,100337.73
2022-11-05T20:16:55.856Z,100336.89
2022-11-05T20:19:24.743Z,100338.38
2022-11-05T20:21:53.571Z,100338.69
2022-11-05T20:24:35.991Z,100336.84
2022-11-05T20:27:05.322Z,100342.39
2022-11-05T20:29:35.884Z,100344.08
2022-11-05T20:32:05.341Z,100350.15
2022-11-05T20:34:35.257Z,100352.95
2022-11-05T20:37:04.473Z,100353.98
2022-11-05T20:39:46.662Z,100357.52
2022-11-05T20:42:15.360Z,100360.76
2022-11-05T20:44:44.347Z,100363.30
2022-11-05T20:47:13.063Z,100364.48
2022-11-05T20:49:42.072Z,100371.50
2022-11-05T20:52:12.650Z,100369.02
2022-11-05T20:54:41.046Z,100374.13
2022-11-05T20:57:23.151Z,100372.64
2022-11-05T21:00:08.183Z,100374.05
2022-11-05T21:02:38.852Z,100373.30
2022-11-05T21:05:08.635Z,100377.27
2022-11-05T21:07:51.226Z,100379.73
2022-11-05T21:10:20.482Z,100381.61
2022-11-05T21:12:49.278Z,100384.00
2022-11-05T21:15:21.473Z,100382.27
2022-11-05T21:17:50.975Z,100389.23
2022-11-05T21:20:19.768Z,100385.89
2022-11-05T21:22:49.254Z,100385.33
2022-11-05T21:25:18.086Z,100384.62
2022-11-05T21:27:47.028Z,100390.16
2022-11-05T21:30:15.713Z,100388.90
2022-11-05T21:32:44.542Z,100384.48
2022-11-05T21:35:27.318Z,100380.38
2022-11-05T21:38:11.015Z,100388.44
2022-11-05T21:40:53.811Z,100385.85
2022-11-05T21:43:22.423Z,100392.60
2022-11-05T21:45:51.882Z,100396.06
2022-11-05T21:48:21.002Z,100403.73
2022-11-05T21:51:22.329Z,100402.30
2022-11-05T21:54:10.494Z,100402.92
2022-11-05T21:56:57.818Z,100402.25
2022-11-05T21:59:45.375Z,100402.47
2022-11-05T22:02:20.454Z,100403.88
2022-11-05T22:04:52.686Z,100406.48
2022-11-05T22:07:38.375Z,100409.08
2022-11-05T22:10:15.851Z,100409.20
2022-11-05T22:12:46.425Z,100407.31
2022-11-05T22:15:28.918Z,100407.09
2022-11-05T22:18:11.460Z,100403.10
2022-11-05T22:20:45.215Z,100399.73
2022-11-05T22:23:34.053Z,100404.75
2022-11-05T22:26:18.727Z,100408.98
2022-11-05T22:28:47.368Z,100407.30
2022-11-05T22:31:17.370Z,100416.55
2022-11-05T22:33:52.168Z,100417.95
2022-11-05T22:36:24.669Z,100421.44
2022-11-05T22:38:53.898Z,100423.91
2022-11-05T22:41:22.937Z,100423.09
2022-11-05T22:43:52.054Z,100429.04
2022-11-05T22:46:23.568Z,100433.73
2022-11-05T22:49:07.890Z,100433.98
2022-11-05T22:51:50.939Z,100435.25
2022-11-05T22:54:19.741Z,100440.79
2022-11-05T22:56:50.487Z,100442.30
2022-11-05T22:59:19.837Z,100440.99
2022-11-05T23:01:50.010Z,100441.27
2022-11-05T23:04:19.383Z,100442.44
2022-11-05T23:07:07.128Z,100443.55
2022-11-05T23:09:55.171Z,100443.54
2022-11-05T23:12:38.020Z,100444.18
2022-11-05T23:15:09.237Z,100446.25
2022-11-05T23:17:56.570Z,100447.40
2022-11-05T23:21:11.801Z,100449.70
2022-11-05T23:23:59.938Z,100453.92
2022-11-05T23:26:54.331Z,100454.77
2022-11-05T23:29:36.970Z,100454.81
2022-11-05T23:32:24.771Z,100456.40
2022-11-05T23:34:56.157Z,100451.40
2022-11-05T23:37:46.928Z,100450.70
2022-11-05T23:40:26.085Z,100450.20
2022-11-05T23:43:29.991Z,100454.15
2022-11-05T23:46:31.018Z,100446.70
2022-11-05T23:49:00.148Z,100451.84
2022-11-05T23:51:42.813Z,100450.78
2022-11-05T23:54:11.846Z,100452.11
2022-11-05T23:56:54.557Z,100456.89
2022-11-05T23:59:23.515Z,100458.68
